sensor_id;sensor_type;location;lat;lon;timestamp;P1;durP1;ratioP1;P2;durP2;ratioP2
15198;SDS011;7700;48.654;9.070;2023-03-12T00:01:51;7.50;;;4.20;;
15198;SDS011;7700;48.654;9.070;2023-03-12T00:04:17;7.07;;;4.13;;
15198;SDS011;7700;48.654;9.070;2023-03-12T00:06:43;6.10;;;4.63;;
15198;SDS011;7700;48.654;9.070;2023-03-12T00:09:09;7.33;;;4.73;;
15198;SDS011;7700;48.654;9.070;2023-03-12T00:11:35;4.90;;;4.33;;
15198;SDS011;7700;48.654;9.070;2023-03-12T00:14:01;6.93;;;4.83;;
15198;SDS011;7700;48.654;9.070;2023-03-12T00:16:27;8.13;;;5.03;;
15198;SDS011;7700;48.654;9.070;2023-03-12T00:18:54;5.97;;;4.47;;
15198;SDS011;7700;48.654;9.070;2023-03-12T00:21:20;6.13;;;4.43;;
15198;SDS011;7700;48.654;9.070;2023-03-12T00:23:49;5.13;;;4.63;;
15198;SDS011;7700;48.654;9.070;2023-03-12T00:26:16;6.67;;;4.33;;
15198;SDS011;7700;48.654;9.070;2023-03-12T00:28:42;5.53;;;4.30;;
15198;SDS011;7700;48.654;9.070;2023-03-12T00:31:13;8.37;;;4.47;;
15198;SDS011;7700;48.654;9.070;2023-03-12T00:33:39;7.40;;;3.80;;
15198;SDS011;7700;48.654;9.070;2023-03-12T00:36:05;6.87;;;4.07;;
15198;SDS011;7700;48.654;9.070;2023-03-12T00:38:32;4.60;;;3.70;;
15198;SDS011;7700;48.654;9.070;2023-03-12T00:40:58;10.23;;;5.70;;
15198;SDS011;7700;48.654;9.070;2023-03-12T00:43:24;16.07;;;10.63;;
15198;SDS011;7700;48.654;9.070;2023-03-12T00:45:50;10.40;;;7.23;;
15198;SDS011;7700;48.654;9.070;2023-03-12T00:48:16;7.30;;;5.07;;
15198;SDS011;7700;48.654;9.070;2023-03-12T00:50:42;6.53;;;4.03;;
15198;SDS011;7700;48.654;9.070;2023-03-12T00:53:08;5.87;;;4.10;;
15198;SDS011;7700;48.654;9.070;2023-03-12T00:55:34;4.53;;;3.87;;
15198;SDS011;7700;48.654;9.070;2023-03-12T00:58:00;4.77;;;4.07;;
15198;SDS011;7700;48.654;9.070;2023-03-12T01:00:26;9.67;;;4.20;;
15198;SDS011;7700;48.654;9.070;2023-03-12T01:02:52;4.83;;;4.33;;
15198;SDS011;7700;48.654;9.070;2023-03-12T01:05:18;9.13;;;4.67;;
15198;SDS011;7700;48.654;9.070;2023-03-12T01:07:44;9.57;;;4.93;;
15198;SDS011;7700;48.654;9.070;2023-03-12T01:10:12;6.37;;;4.37;;
15198;SDS011;7700;48.654;9.070;2023-03-12T01:12:38;5.83;;;4.17;;
15198;SDS011;7700;48.654;9.070;2023-03-12T01:15:05;4.90;;;4.13;;
15198;SDS011;7700;48.654;9.070;2023-03-12T01:17:31;5.87;;;4.13;;
15198;SDS011;7700;48.654;9.070;2023-03-12T01:19:57;5.73;;;4.20;;
15198;SDS011;7700;48.654;9.070;2023-03-12T01:22:23;4.57;;;3.47;;
15198;SDS011;7700;48.654;9.070;2023-03-12T01:24:49;5.53;;;4.27;;
15198;SDS011;7700;48.654;9.070;2023-03-12T01:27:15;4.60;;;4.10;;
15198;SDS011;7700;48.654;9.070;2023-03-12T01:29:41;5.67;;;4.07;;
15198;SDS011;7700;48.654;9.070;2023-03-12T01:32:07;6.37;;;4.10;;
15198;SDS011;7700;48.654;9.070;2023-03-12T01:34:33;4.87;;;3.70;;
15198;SDS011;7700;48.654;9.070;2023-03-12T01:36:59;5.23;;;3.97;;
15198;SDS011;7700;48.654;9.070;2023-03-12T01:39:26;8.97;;;4.57;;
15198;SDS011;7700;48.654;9.070;2023-03-12T01:41:52;8.43;;;4.00;;
15198;SDS011;7700;48.654;9.070;2023-03-12T01:44:18;6.47;;;4.20;;
15198;SDS011;7700;48.654;9.070;2023-03-12T01:46:44;6.03;;;3.90;;
15198;SDS011;7700;48.654;9.070;2023-03-12T01:49:15;6.20;;;3.90;;
15198;SDS011;7700;48.654;9.070;2023-03-12T01:51:49;6.37;;;4.27;;
15198;SDS011;7700;48.654;9.070;2023-03-12T01:54:19;7.00;;;4.90;;
15198;SDS011;7700;48.654;9.070;2023-03-12T01:56:47;6.93;;;4.17;;
15198;SDS011;7700;48.654;9.070;2023-03-12T01:59:15;6.90;;;4.60;;
15198;SDS011;7700;48.654;9.070;2023-03-12T02:01:42;6.37;;;4.30;;
15198;SDS011;7700;48.654;9.070;2023-03-12T02:04:09;6.37;;;4.07;;
15198;SDS011;7700;48.654;9.070;2023-03-12T02:06:41;5.13;;;3.30;;
15198;SDS011;7700;48.654;9.070;2023-03-12T02:09:08;6.30;;;3.70;;
15198;SDS011;7700;48.654;9.070;2023-03-12T02:11:36;7.97;;;4.43;;
15198;SDS011;7700;48.654;9.070;2023-03-12T02:14:02;7.80;;;5.07;;
15198;SDS011;7700;48.654;9.070;2023-03-12T02:16:28;5.63;;;4.17;;
15198;SDS011;7700;48.654;9.070;2023-03-12T02:18:54;5.70;;;4.57;;
15198;SDS011;7700;48.654;9.070;2023-03-12T02:21:23;5.37;;;4.07;;
15198;SDS011;7700;48.654;9.070;2023-03-12T02:26:34;7.57;;;4.70;;
15198;SDS011;7700;48.654;9.070;2023-03-12T02:29:00;7.40;;;5.10;;
15198;SDS011;7700;48.654;9.070;2023-03-12T02:31:28;6.27;;;5.23;;
15198;SDS011;7700;48.654;9.070;2023-03-12T02:33:56;6.93;;;5.00;;
15198;SDS011;7700;48.654;9.070;2023-03-12T02:36:24;5.60;;;4.77;;
15198;SDS011;7700;48.654;9.070;2023-03-12T02:38:51;5.97;;;4.50;;
15198;SDS011;7700;48.654;9.070;2023-03-12T02:43:48;5.43;;;4.60;;
15198;SDS011;7700;48.654;9.070;2023-03-12T02:46:15;7.07;;;5.20;;
15198;SDS011;7700;48.654;9.070;2023-03-12T02:48:41;4.70;;;4.30;;
15198;SDS011;7700;48.654;9.070;2023-03-12T02:51:07;6.17;;;4.07;;
15198;SDS011;7700;48.654;9.070;2023-03-12T02:53:33;7.53;;;4.80;;
15198;SDS011;7700;48.654;9.070;2023-03-12T02:55:59;7.00;;;5.13;;
15198;SDS011;7700;48.654;9.070;2023-03-12T02:58:25;6.20;;;4.77;;
15198;SDS011;7700;48.654;9.070;2023-03-12T03:00:51;7.03;;;4.70;;
15198;SDS011;7700;48.654;9.070;2023-03-12T03:03:17;7.07;;;5.50;;
15198;SDS011;7700;48.654;9.070;2023-03-12T03:05:43;5.43;;;4.80;;
15198;SDS011;7700;48.654;9.070;2023-03-12T03:08:09;6.13;;;4.90;;
15198;SDS011;7700;48.654;9.070;2023-03-12T03:13:28;9.03;;;4.70;;
15198;SDS011;7700;48.654;9.070;2023-03-12T03:15:54;6.30;;;4.90;;
15198;SDS011;7700;48.654;9.070;2023-03-12T03:18:22;6.67;;;4.70;;
15198;SDS011;7700;48.654;9.070;2023-03-12T03:21:03;7.83;;;5.03;;
15198;SDS011;7700;48.654;9.070;2023-03-12T03:23:29;5.80;;;5.20;;
15198;SDS011;7700;48.654;9.070;2023-03-12T03:25:56;8.30;;;5.37;;
15198;SDS011;7700;48.654;9.070;2023-03-12T03:28:23;5.73;;;4.90;;
15198;SDS011;7700;48.654;9.070;2023-03-12T03:30:53;5.93;;;5.03;;
15198;SDS011;7700;48.654;9.070;2023-03-12T03:33:19;8.47;;;5.63;;
15198;SDS011;7700;48.654;9.070;2023-03-12T03:35:46;6.17;;;4.33;;
15198;SDS011;7700;48.654;9.070;2023-03-12T03:38:12;8.90;;;4.67;;
15198;SDS011;7700;48.654;9.070;2023-03-12T03:40:38;6.37;;;5.10;;
15198;SDS011;7700;48.654;9.070;2023-03-12T03:43:04;8.33;;;4.90;;
15198;SDS011;7700;48.654;9.070;2023-03-12T03:45:30;5.30;;;4.53;;
15198;SDS011;7700;48.654;9.070;2023-03-12T03:47:56;5.00;;;4.50;;
15198;SDS011;7700;48.654;9.070;2023-03-12T03:50:22;7.30;;;4.73;;
15198;SDS011;7700;48.654;9.070;2023-03-12T03:52:48;4.57;;;4.00;;
15198;SDS011;7700;48.654;9.070;2023-03-12T03:55:14;8.23;;;4.60;;
15198;SDS011;7700;48.654;9.070;2023-03-12T03:57:40;9.10;;;5.27;;
15198;SDS011;7700;48.654;9.070;2023-03-12T04:00:07;4.63;;;4.10;;
15198;SDS011;7700;48.654;9.070;2023-03-12T04:02:34;5.13;;;4.60;;
15198;SDS011;7700;48.654;9.070;2023-03-12T04:05:00;5.30;;;4.80;;
15198;SDS011;7700;48.654;9.070;2023-03-12T04:07:26;7.23;;;5.03;;
15198;SDS011;7700;48.654;9.070;2023-03-12T04:09:53;4.67;;;3.90;;
15198;SDS011;7700;48.654;9.070;2023-03-12T04:12:19;6.03;;;4.47;;
15198;SDS011;7700;48.654;9.070;2023-03-12T04:14:45;9.67;;;4.70;;
15198;SDS011;7700;48.654;9.070;2023-03-12T04:17:11;5.23;;;4.73;;
15198;SDS011;7700;48.654;9.070;2023-03-12T04:19:37;7.87;;;5.23;;
15198;SDS011;7700;48.654;9.070;2023-03-12T04:22:03;6.57;;;5.20;;
15198;SDS011;7700;48.654;9.070;2023-03-12T04:24:29;7.73;;;5.07;;
15198;SDS011;7700;48.654;9.070;2023-03-12T04:26:55;5.87;;;4.83;;
15198;SDS011;7700;48.654;9.070;2023-03-12T04:29:23;8.17;;;5.23;;
15198;SDS011;7700;48.654;9.070;2023-03-12T04:31:49;6.47;;;4.83;;
15198;SDS011;7700;48.654;9.070;2023-03-12T04:34:15;5.63;;;4.60;;
15198;SDS011;7700;48.654;9.070;2023-03-12T04:36:40;6.07;;;4.83;;
15198;SDS011;7700;48.654;9.070;2023-03-12T04:39:07;5.47;;;4.80;;
15198;SDS011;7700;48.654;9.070;2023-03-12T04:41:34;5.53;;;4.40;;
15198;SDS011;7700;48.654;9.070;2023-03-12T04:44:00;7.87;;;5.00;;
15198;SDS011;7700;48.654;9.070;2023-03-12T04:46:26;9.17;;;6.40;;
15198;SDS011;7700;48.654;9.070;2023-03-12T04:48:52;7.70;;;5.03;;
15198;SDS011;7700;48.654;9.070;2023-03-12T04:51:18;6.83;;;5.13;;
15198;SDS011;7700;48.654;9.070;2023-03-12T04:53:44;7.10;;;4.73;;
15198;SDS011;7700;48.654;9.070;2023-03-12T04:56:10;8.47;;;5.20;;
15198;SDS011;7700;48.654;9.070;2023-03-12T04:58:36;6.43;;;4.90;;
15198;SDS011;7700;48.654;9.070;2023-03-12T05:01:03;5.40;;;4.80;;
15198;SDS011;7700;48.654;9.070;2023-03-12T05:03:29;6.20;;;4.37;;
15198;SDS011;7700;48.654;9.070;2023-03-12T05:05:55;6.40;;;4.80;;
15198;SDS011;7700;48.654;9.070;2023-03-12T05:08:21;6.73;;;4.83;;
15198;SDS011;7700;48.654;9.070;2023-03-12T05:10:47;7.53;;;4.83;;
15198;SDS011;7700;48.654;9.070;2023-03-12T05:13:14;8.33;;;5.87;;
15198;SDS011;7700;48.654;9.070;2023-03-12T05:15:41;7.63;;;5.87;;
15198;SDS011;7700;48.654;9.070;2023-03-12T05:18:07;10.97;;;5.57;;
15198;SDS011;7700;48.654;9.070;2023-03-12T05:20:33;6.23;;;5.03;;
15198;SDS011;7700;48.654;9.070;2023-03-12T05:22:59;7.30;;;4.73;;
15198;SDS011;7700;48.654;9.070;2023-03-12T05:25:25;6.60;;;4.43;;
15198;SDS011;7700;48.654;9.070;2023-03-12T05:27:51;5.93;;;4.83;;
15198;SDS011;7700;48.654;9.070;2023-03-12T05:30:19;5.10;;;4.60;;
15198;SDS011;7700;48.654;9.070;2023-03-12T05:32:45;5.53;;;5.03;;
15198;SDS011;7700;48.654;9.070;2023-03-12T05:35:11;6.33;;;4.40;;
15198;SDS011;7700;48.654;9.070;2023-03-12T05:37:37;5.53;;;4.70;;
15198;SDS011;7700;48.654;9.070;2023-03-12T05:40:09;5.43;;;4.93;;
15198;SDS011;7700;48.654;9.070;2023-03-12T05:42:35;6.80;;;4.70;;
15198;SDS011;7700;48.654;9.070;2023-03-12T05:45:02;6.40;;;4.47;;
15198;SDS011;7700;48.654;9.070;2023-03-12T05:47:28;5.37;;;4.67;;
15198;SDS011;7700;48.654;9.070;2023-03-12T05:49:54;5.87;;;4.40;;
15198;SDS011;7700;48.654;9.070;2023-03-12T05:52:20;6.10;;;4.57;;
15198;SDS011;7700;48.654;9.070;2023-03-12T05:54:46;4.80;;;4.40;;
15198;SDS011;7700;48.654;9.070;2023-03-12T05:57:12;4.73;;;4.23;;
15198;SDS011;7700;48.654;9.070;2023-03-12T05:59:38;6.13;;;4.70;;
15198;SDS011;7700;48.654;9.070;2023-03-12T06:02:04;5.83;;;4.40;;
15198;SDS011;7700;48.654;9.070;2023-03-12T06:04:30;5.47;;;4.40;;
15198;SDS011;7700;48.654;9.070;2023-03-12T06:06:56;5.90;;;4.20;;
15198;SDS011;7700;48.654;9.070;2023-03-12T06:09:22;4.73;;;3.90;;
15198;SDS011;7700;48.654;9.070;2023-03-12T06:11:48;6.07;;;4.70;;
15198;SDS011;7700;48.654;9.070;2023-03-12T06:14:14;7.07;;;4.37;;
15198;SDS011;7700;48.654;9.070;2023-03-12T06:16:40;6.00;;;4.50;;
15198;SDS011;7700;48.654;9.070;2023-03-12T06:19:06;5.23;;;4.70;;
15198;SDS011;7700;48.654;9.070;2023-03-12T06:21:33;6.00;;;4.50;;
15198;SDS011;7700;48.654;9.070;2023-03-12T06:24:00;7.33;;;4.73;;
15198;SDS011;7700;48.654;9.070;2023-03-12T06:26:26;6.57;;;4.77;;
15198;SDS011;7700;48.654;9.070;2023-03-12T06:28:52;5.93;;;5.07;;
15198;SDS011;7700;48.654;9.070;2023-03-12T06:31:18;5.37;;;4.47;;
15198;SDS011;7700;48.654;9.070;2023-03-12T06:33:44;6.77;;;5.03;;
15198;SDS011;7700;48.654;9.070;2023-03-12T06:36:11;6.47;;;5.10;;
15198;SDS011;7700;48.654;9.070;2023-03-12T06:38:37;4.73;;;4.20;;
15198;SDS011;7700;48.654;9.070;2023-03-12T06:41:05;5.67;;;5.17;;
15198;SDS011;7700;48.654;9.070;2023-03-12T06:43:32;8.00;;;5.07;;
15198;SDS011;7700;48.654;9.070;2023-03-12T06:45:58;6.83;;;4.87;;
15198;SDS011;7700;48.654;9.070;2023-03-12T06:48:25;5.97;;;4.50;;
15198;SDS011;7700;48.654;9.070;2023-03-12T06:50:51;5.00;;;4.50;;
15198;SDS011;7700;48.654;9.070;2023-03-12T06:53:18;5.10;;;4.63;;
15198;SDS011;7700;48.654;9.070;2023-03-12T06:55:47;5.07;;;4.40;;
15198;SDS011;7700;48.654;9.070;2023-03-12T06:58:14;5.27;;;4.40;;
15198;SDS011;7700;48.654;9.070;2023-03-12T07:00:40;7.17;;;4.73;;
15198;SDS011;7700;48.654;9.070;2023-03-12T07:03:06;6.93;;;4.40;;
15198;SDS011;7700;48.654;9.070;2023-03-12T07:05:32;5.67;;;4.30;;
15198;SDS011;7700;48.654;9.070;2023-03-12T07:07:58;5.53;;;4.83;;
15198;SDS011;7700;48.654;9.070;2023-03-12T07:10:24;6.13;;;3.97;;
15198;SDS011;7700;48.654;9.070;2023-03-12T07:12:53;5.53;;;3.77;;
15198;SDS011;7700;48.654;9.070;2023-03-12T07:15:19;4.73;;;4.20;;
15198;SDS011;7700;48.654;9.070;2023-03-12T07:17:45;5.50;;;4.83;;
15198;SDS011;7700;48.654;9.070;2023-03-12T07:20:11;7.10;;;4.80;;
15198;SDS011;7700;48.654;9.070;2023-03-12T07:22:37;5.47;;;3.97;;
15198;SDS011;7700;48.654;9.070;2023-03-12T07:25:04;6.13;;;4.37;;
15198;SDS011;7700;48.654;9.070;2023-03-12T07:27:30;4.23;;;3.83;;
15198;SDS011;7700;48.654;9.070;2023-03-12T07:29:56;6.23;;;3.70;;
15198;SDS011;7700;48.654;9.070;2023-03-12T07:32:22;4.83;;;4.40;;
15198;SDS011;7700;48.654;9.070;2023-03-12T07:34:48;5.33;;;4.83;;
15198;SDS011;7700;48.654;9.070;2023-03-12T07:37:14;5.13;;;4.07;;
15198;SDS011;7700;48.654;9.070;2023-03-12T07:39:40;5.50;;;4.73;;
15198;SDS011;7700;48.654;9.070;2023-03-12T07:42:06;5.30;;;4.10;;
15198;SDS011;7700;48.654;9.070;2023-03-12T07:44:32;4.93;;;4.27;;
15198;SDS011;7700;48.654;9.070;2023-03-12T07:47:00;4.43;;;3.97;;
15198;SDS011;7700;48.654;9.070;2023-03-12T07:49:26;4.90;;;4.17;;
15198;SDS011;7700;48.654;9.070;2023-03-12T07:51:52;4.87;;;4.27;;
15198;SDS011;7700;48.654;9.070;2023-03-12T07:54:19;5.03;;;4.53;;
15198;SDS011;7700;48.654;9.070;2023-03-12T07:56:45;6.77;;;4.43;;
15198;SDS011;7700;48.654;9.070;2023-03-12T07:59:11;5.27;;;4.67;;
15198;SDS011;7700;48.654;9.070;2023-03-12T08:01:37;4.63;;;4.23;;
15198;SDS011;7700;48.654;9.070;2023-03-12T08:04:03;13.73;;;9.77;;
15198;SDS011;7700;48.654;9.070;2023-03-12T08:06:29;9.37;;;6.27;;
15198;SDS011;7700;48.654;9.070;2023-03-12T08:08:55;5.40;;;4.33;;
15198;SDS011;7700;48.654;9.070;2023-03-12T08:11:21;4.67;;;4.17;;
15198;SDS011;7700;48.654;9.070;2023-03-12T08:13:47;5.50;;;4.30;;
15198;SDS011;7700;48.654;9.070;2023-03-12T08:16:13;4.43;;;4.03;;
15198;SDS011;7700;48.654;9.070;2023-03-12T08:18:39;7.33;;;5.13;;
15198;SDS011;7700;48.654;9.070;2023-03-12T08:21:07;5.33;;;4.07;;
15198;SDS011;7700;48.654;9.070;2023-03-12T08:23:33;3.93;;;3.60;;
15198;SDS011;7700;48.654;9.070;2023-03-12T08:25:59;3.70;;;3.40;;
15198;SDS011;7700;48.654;9.070;2023-03-12T08:28:25;4.80;;;3.80;;
15198;SDS011;7700;48.654;9.070;2023-03-12T08:30:52;4.13;;;3.80;;
15198;SDS011;7700;48.654;9.070;2023-03-12T08:33:19;6.13;;;3.90;;
15198;SDS011;7700;48.654;9.070;2023-03-12T08:35:45;4.57;;;4.20;;
15198;SDS011;7700;48.654;9.070;2023-03-12T08:38:11;4.40;;;4.00;;
15198;SDS011;7700;48.654;9.070;2023-03-12T08:40:37;5.00;;;4.50;;
15198;SDS011;7700;48.654;9.070;2023-03-12T08:43:03;5.03;;;4.40;;
15198;SDS011;7700;48.654;9.070;2023-03-12T08:45:31;5.20;;;4.20;;
15198;SDS011;7700;48.654;9.070;2023-03-12T08:47:57;5.33;;;4.77;;
15198;SDS011;7700;48.654;9.070;2023-03-12T08:50:23;6.93;;;5.27;;
15198;SDS011;7700;48.654;9.070;2023-03-12T08:52:53;9.17;;;5.27;;
15198;SDS011;7700;48.654;9.070;2023-03-12T08:55:20;6.10;;;4.87;;
15198;SDS011;7700;48.654;9.070;2023-03-12T08:57:46;5.57;;;5.07;;
15198;SDS011;7700;48.654;9.070;2023-03-12T09:00:12;6.57;;;5.50;;
15198;SDS011;7700;48.654;9.070;2023-03-12T09:02:40;6.97;;;5.57;;
15198;SDS011;7700;48.654;9.070;2023-03-12T09:05:07;6.10;;;5.47;;
15198;SDS011;7700;48.654;9.070;2023-03-12T09:07:33;8.23;;;5.57;;
15198;SDS011;7700;48.654;9.070;2023-03-12T09:09:59;6.80;;;6.20;;
15198;SDS011;7700;48.654;9.070;2023-03-12T09:12:25;6.40;;;5.80;;
15198;SDS011;7700;48.654;9.070;2023-03-12T09:14:52;6.07;;;5.40;;
15198;SDS011;7700;48.654;9.070;2023-03-12T09:17:18;6.03;;;5.53;;
15198;SDS011;7700;48.654;9.070;2023-03-12T09:19:44;8.07;;;6.30;;
15198;SDS011;7700;48.654;9.070;2023-03-12T09:22:10;6.70;;;6.10;;
15198;SDS011;7700;48.654;9.070;2023-03-12T09:24:36;7.50;;;5.80;;
15198;SDS011;7700;48.654;9.070;2023-03-12T09:27:02;6.63;;;5.97;;
15198;SDS011;7700;48.654;9.070;2023-03-12T09:29:29;6.83;;;6.13;;
15198;SDS011;7700;48.654;9.070;2023-03-12T09:31:55;7.10;;;5.83;;
15198;SDS011;7700;48.654;9.070;2023-03-12T09:34:21;6.60;;;5.07;;
15198;SDS011;7700;48.654;9.070;2023-03-12T09:36:47;6.97;;;5.87;;
15198;SDS011;7700;48.654;9.070;2023-03-12T09:39:13;6.30;;;4.93;;
15198;SDS011;7700;48.654;9.070;2023-03-12T09:41:40;6.00;;;5.37;;
15198;SDS011;7700;48.654;9.070;2023-03-12T09:46:56;6.10;;;5.50;;
15198;SDS011;7700;48.654;9.070;2023-03-12T09:52:02;5.40;;;4.73;;
15198;SDS011;7700;48.654;9.070;2023-03-12T09:55:14;5.07;;;4.23;;
15198;SDS011;7700;48.654;9.070;2023-03-12T09:57:21;5.50;;;4.93;;
15198;SDS011;7700;48.654;9.070;2023-03-12T09:59:49;6.47;;;5.10;;
15198;SDS011;7700;48.654;9.070;2023-03-12T10:03:38;4.00;;;3.67;;
15198;SDS011;7700;48.654;9.070;2023-03-12T10:06:10;4.20;;;3.80;;
15198;SDS011;7700;48.654;9.070;2023-03-12T10:19:26;3.17;;;2.70;;
15198;SDS011;7700;48.654;9.070;2023-03-12T10:21:59;3.13;;;2.60;;
15198;SDS011;7700;48.654;9.070;2023-03-12T10:26:54;1.80;;;1.47;;
15198;SDS011;7700;48.654;9.070;2023-03-12T10:29:29;2.40;;;2.00;;
15198;SDS011;7700;48.654;9.070;2023-03-12T10:34:48;1.90;;;1.50;;
15198;SDS011;7700;48.654;9.070;2023-03-12T10:39:47;1.77;;;1.67;;
15198;SDS011;7700;48.654;9.070;2023-03-12T10:42:15;1.40;;;1.20;;
15198;SDS011;7700;48.654;9.070;2023-03-12T10:44:41;2.40;;;1.30;;
15198;SDS011;7700;48.654;9.070;2023-03-12T10:49:43;1.23;;;1.07;;
15198;SDS011;7700;48.654;9.070;2023-03-12T10:52:15;2.67;;;0.80;;
15198;SDS011;7700;48.654;9.070;2023-03-12T10:54:42;1.57;;;0.90;;
15198;SDS011;7700;48.654;9.070;2023-03-12T10:57:09;1.30;;;1.20;;
15198;SDS011;7700;48.654;9.070;2023-03-12T10:59:36;2.57;;;1.53;;
15198;SDS011;7700;48.654;9.070;2023-03-12T11:02:23;1.67;;;1.00;;
15198;SDS011;7700;48.654;9.070;2023-03-12T11:04:49;1.63;;;1.10;;
15198;SDS011;7700;48.654;9.070;2023-03-12T11:12:33;1.10;;;0.80;;
15198;SDS011;7700;48.654;9.070;2023-03-12T11:15:23;1.10;;;0.70;;
15198;SDS011;7700;48.654;9.070;2023-03-12T11:17:46;1.08;;;0.70;;
15198;SDS011;7700;48.654;9.070;2023-03-12T11:20:28;1.75;;;1.40;;
15198;SDS011;7700;48.654;9.070;2023-03-12T11:22:54;1.33;;;0.70;;
15198;SDS011;7700;48.654;9.070;2023-03-12T11:25:22;1.23;;;1.13;;
15198;SDS011;7700;48.654;9.070;2023-03-12T11:27:50;1.63;;;1.05;;
15198;SDS011;7700;48.654;9.070;2023-03-12T11:30:20;2.50;;;1.20;;
15198;SDS011;7700;48.654;9.070;2023-03-12T11:32:47;4.77;;;1.63;;
15198;SDS011;7700;48.654;9.070;2023-03-12T11:35:15;2.57;;;1.10;;
15198;SDS011;7700;48.654;9.070;2023-03-12T11:45:39;2.23;;;1.20;;
15198;SDS011;7700;48.654;9.070;2023-03-12T11:51:01;1.70;;;0.90;;
15198;SDS011;7700;48.654;9.070;2023-03-12T11:53:41;3.47;;;1.45;;
15198;SDS011;7700;48.654;9.070;2023-03-12T11:58:52;3.08;;;1.10;;
15198;SDS011;7700;48.654;9.070;2023-03-12T12:06:48;3.63;;;1.55;;
15198;SDS011;7700;48.654;9.070;2023-03-12T12:09:24;5.53;;;2.40;;
15198;SDS011;7700;48.654;9.070;2023-03-12T12:11:59;2.97;;;1.92;;
15198;SDS011;7700;48.654;9.070;2023-03-12T12:17:01;2.65;;;1.13;;
15198;SDS011;7700;48.654;9.070;2023-03-12T12:24:33;5.00;;;2.03;;
15198;SDS011;7700;48.654;9.070;2023-03-12T12:27:14;5.32;;;1.83;;
15198;SDS011;7700;48.654;9.070;2023-03-12T12:32:30;2.67;;;1.30;;
15198;SDS011;7700;48.654;9.070;2023-03-12T12:35:04;3.90;;;1.70;;
15198;SDS011;7700;48.654;9.070;2023-03-12T12:38:06;4.53;;;1.50;;
15198;SDS011;7700;48.654;9.070;2023-03-12T12:40:28;4.05;;;1.30;;
15198;SDS011;7700;48.654;9.070;2023-03-12T12:42:57;2.20;;;1.40;;
15198;SDS011;7700;48.654;9.070;2023-03-12T12:45:26;2.78;;;1.38;;
15198;SDS011;7700;48.654;9.070;2023-03-12T12:48:01;3.85;;;1.23;;
15198;SDS011;7700;48.654;9.070;2023-03-12T12:50:29;2.83;;;1.58;;
15198;SDS011;7700;48.654;9.070;2023-03-12T12:53:01;2.95;;;1.75;;
15198;SDS011;7700;48.654;9.070;2023-03-12T12:56:14;2.97;;;1.40;;
15198;SDS011;7700;48.654;9.070;2023-03-12T12:58:22;3.50;;;1.42;;
15198;SDS011;7700;48.654;9.070;2023-03-12T13:00:55;5.68;;;1.40;;
15198;SDS011;7700;48.654;9.070;2023-03-12T13:03:23;3.85;;;1.33;;
15198;SDS011;7700;48.654;9.070;2023-03-12T13:05:57;3.72;;;1.50;;
15198;SDS011;7700;48.654;9.070;2023-03-12T13:10:59;2.25;;;1.15;;
15198;SDS011;7700;48.654;9.070;2023-03-12T13:13:28;1.52;;;0.90;;
15198;SDS011;7700;48.654;9.070;2023-03-12T13:18:38;2.55;;;1.30;;
15198;SDS011;7700;48.654;9.070;2023-03-12T13:21:12;3.53;;;0.90;;
15198;SDS011;7700;48.654;9.070;2023-03-12T13:23:48;2.47;;;1.40;;
15198;SDS011;7700;48.654;9.070;2023-03-12T13:26:26;3.77;;;1.97;;
15198;SDS011;7700;48.654;9.070;2023-03-12T13:28:57;3.47;;;1.13;;
15198;SDS011;7700;48.654;9.070;2023-03-12T13:33:58;2.97;;;1.67;;
15198;SDS011;7700;48.654;9.070;2023-03-12T13:36:25;2.00;;;0.75;;
15198;SDS011;7700;48.654;9.070;2023-03-12T13:41:35;4.70;;;1.37;;
15198;SDS011;7700;48.654;9.070;2023-03-12T13:49:28;2.92;;;0.98;;
15198;SDS011;7700;48.654;9.070;2023-03-12T13:52:00;1.93;;;1.00;;
15198;SDS011;7700;48.654;9.070;2023-03-12T13:54:28;2.60;;;1.20;;
15198;SDS011;7700;48.654;9.070;2023-03-12T13:57:10;2.40;;;1.30;;
15198;SDS011;7700;48.654;9.070;2023-03-12T13:59:36;2.33;;;1.27;;
15198;SDS011;7700;48.654;9.070;2023-03-12T14:02:12;2.53;;;0.83;;
15198;SDS011;7700;48.654;9.070;2023-03-12T14:04:40;1.70;;;1.13;;
15198;SDS011;7700;48.654;9.070;2023-03-12T14:09:42;2.53;;;1.00;;
15198;SDS011;7700;48.654;9.070;2023-03-12T14:14:48;2.10;;;1.07;;
15198;SDS011;7700;48.654;9.070;2023-03-12T14:17:18;2.53;;;1.10;;
15198;SDS011;7700;48.654;9.070;2023-03-12T14:19:50;3.07;;;1.50;;
15198;SDS011;7700;48.654;9.070;2023-03-12T14:22:17;2.90;;;1.23;;
15198;SDS011;7700;48.654;9.070;2023-03-12T14:24:56;2.70;;;1.13;;
15198;SDS011;7700;48.654;9.070;2023-03-12T14:27:25;2.85;;;1.40;;
15198;SDS011;7700;48.654;9.070;2023-03-12T14:29:54;2.30;;;1.05;;
15198;SDS011;7700;48.654;9.070;2023-03-12T14:32:22;3.40;;;1.40;;
15198;SDS011;7700;48.654;9.070;2023-03-12T14:34:51;2.33;;;1.20;;
15198;SDS011;7700;48.654;9.070;2023-03-12T14:37:20;2.88;;;1.30;;
15198;SDS011;7700;48.654;9.070;2023-03-12T14:39:58;4.68;;;3.63;;
15198;SDS011;7700;48.654;9.070;2023-03-12T14:42:30;3.22;;;1.60;;
15198;SDS011;7700;48.654;9.070;2023-03-12T14:47:22;2.38;;;1.00;;
15198;SDS011;7700;48.654;9.070;2023-03-12T14:49:48;3.00;;;1.20;;
15198;SDS011;7700;48.654;9.070;2023-03-12T14:52:35;3.38;;;1.58;;
15198;SDS011;7700;48.654;9.070;2023-03-12T14:55:03;6.47;;;2.03;;
15198;SDS011;7700;48.654;9.070;2023-03-12T14:57:29;3.08;;;1.70;;
15198;SDS011;7700;48.654;9.070;2023-03-12T14:59:56;4.47;;;1.55;;
15198;SDS011;7700;48.654;9.070;2023-03-12T15:02:23;3.47;;;1.10;;
15198;SDS011;7700;48.654;9.070;2023-03-12T15:04:50;3.92;;;1.50;;
15198;SDS011;7700;48.654;9.070;2023-03-12T15:07:20;4.22;;;1.83;;
15198;SDS011;7700;48.654;9.070;2023-03-12T15:09:47;2.65;;;1.70;;
15198;SDS011;7700;48.654;9.070;2023-03-12T15:12:24;3.47;;;1.73;;
15198;SDS011;7700;48.654;9.070;2023-03-12T15:15:09;2.85;;;1.52;;
15198;SDS011;7700;48.654;9.070;2023-03-12T15:17:39;4.07;;;1.42;;
15198;SDS011;7700;48.654;9.070;2023-03-12T15:20:06;2.92;;;1.23;;
15198;SDS011;7700;48.654;9.070;2023-03-12T15:22:33;5.15;;;1.52;;
15198;SDS011;7700;48.654;9.070;2023-03-12T15:25:13;4.22;;;1.48;;
15198;SDS011;7700;48.654;9.070;2023-03-12T15:27:39;5.43;;;1.80;;
15198;SDS011;7700;48.654;9.070;2023-03-12T15:30:21;4.35;;;1.35;;
15198;SDS011;7700;48.654;9.070;2023-03-12T15:35:32;5.63;;;1.60;;
15198;SDS011;7700;48.654;9.070;2023-03-12T15:37:58;3.13;;;1.38;;
15198;SDS011;7700;48.654;9.070;2023-03-12T15:40:25;4.33;;;1.60;;
15198;SDS011;7700;48.654;9.070;2023-03-12T15:42:52;6.68;;;1.88;;
15198;SDS011;7700;48.654;9.070;2023-03-12T15:45:22;4.22;;;1.67;;
15198;SDS011;7700;48.654;9.070;2023-03-12T15:47:49;3.87;;;1.63;;
15198;SDS011;7700;48.654;9.070;2023-03-12T15:52:59;4.00;;;1.53;;
15198;SDS011;7700;48.654;9.070;2023-03-12T15:55:30;4.27;;;1.80;;
15198;SDS011;7700;48.654;9.070;2023-03-12T15:57:56;3.40;;;2.17;;
15198;SDS011;7700;48.654;9.070;2023-03-12T16:05:18;4.17;;;1.37;;
15198;SDS011;7700;48.654;9.070;2023-03-12T16:07:45;3.63;;;1.73;;
15198;SDS011;7700;48.654;9.070;2023-03-12T16:10:12;3.50;;;1.40;;
15198;SDS011;7700;48.654;9.070;2023-03-12T16:12:39;3.63;;;1.93;;
15198;SDS011;7700;48.654;9.070;2023-03-12T16:15:05;3.37;;;1.60;;
15198;SDS011;7700;48.654;9.070;2023-03-12T16:17:32;4.93;;;1.70;;
15198;SDS011;7700;48.654;9.070;2023-03-12T16:19:58;6.17;;;1.80;;
15198;SDS011;7700;48.654;9.070;2023-03-12T16:22:24;3.57;;;1.50;;
15198;SDS011;7700;48.654;9.070;2023-03-12T16:24:50;3.53;;;1.40;;
15198;SDS011;7700;48.654;9.070;2023-03-12T16:27:16;3.83;;;1.57;;
15198;SDS011;7700;48.654;9.070;2023-03-12T16:29:42;6.37;;;1.83;;
15198;SDS011;7700;48.654;9.070;2023-03-12T16:32:09;3.67;;;1.53;;
15198;SDS011;7700;48.654;9.070;2023-03-12T16:34:36;5.43;;;2.27;;
15198;SDS011;7700;48.654;9.070;2023-03-12T16:37:02;5.83;;;1.70;;
15198;SDS011;7700;48.654;9.070;2023-03-12T16:39:28;5.07;;;1.67;;
15198;SDS011;7700;48.654;9.070;2023-03-12T16:41:57;2.97;;;1.13;;
15198;SDS011;7700;48.654;9.070;2023-03-12T16:44:23;3.57;;;1.30;;
15198;SDS011;7700;48.654;9.070;2023-03-12T16:46:51;5.93;;;1.80;;
15198;SDS011;7700;48.654;9.070;2023-03-12T16:49:17;4.43;;;1.50;;